Menu Close Menu
Station Historical Data
Daily Summary for December 8, 2017 Units:  English    Metric   Both
« Previous Day
Next Day »
Daily Weekly Monthly Yearly Custom
  High: Low: Average:
Temperature: 42.6 °F 32.4 °F 34.5 °F
Dew Point: 32.9 °F 30.4 °F 31 °F
Humidity: 93% 63% 87%
Wind Speed: 3.5mph 0.0mph 0.7mph
Wind Gust: 3.5mph - -
Wind- - South
Pressure: 30.14 in 29.96 in -
Precipitation: 0.16 in    
Historical Graphs
 
 
Tabular Data for December 8, 2017
Time Temperature Dew Point Pressure Wind Wind Speed Wind Gust Humidity Rainfall Rate (Hourly) solar Conditions
00:02 42.6 °F 30.9 °F 30.14 in WSW 1.2 mph   63% 0.00 in WeatherDisplay:10.37 W/m2 CLR
00:07 42.6 °F 31.3 °F 30.14 in Calm     64% 0.00 in WeatherDisplay:10.37 W/m2 CLR
00:12 42.5 °F 30.8 °F 30.13 in Calm     63% 0.00 in WeatherDisplay:10.37 W/m2 CLR
00:17 42.5 °F 30.8 °F 30.13 in Calm     63% 0.00 in WeatherDisplay:10.37 W/m2 CLR
00:22 42.5 °F 30.8 °F 30.12 in Calm     63% 0.00 in WeatherDisplay:10.37 W/m2 CLR
00:27 42.4 °F 31.1 °F 30.12 in Calm     64% 0.00 in WeatherDisplay:10.37 W/m2 CLR
00:33 42.3 °F 31.0 °F 30.11 in North 1.2 mph 1.2 mph 64% 0.00 in WeatherDisplay:10.37 W/m2 CLR
00:38 42.4 °F 30.7 °F 30.11 in NNE 1.2 mph   63% 0.00 in WeatherDisplay:10.37 W/m2 CLR
00:43 42.3 °F 30.6 °F 30.11 in South 1.2 mph   63% 0.00 in WeatherDisplay:10.37 W/m2 CLR
00:48 42.3 °F 31.0 °F 30.10 in SE 1.2 mph   64% 0.00 in WeatherDisplay:10.37 W/m2 CLR
00:53 42.3 °F 31.0 °F 30.08 in East 1.2 mph   64% 0.00 in WeatherDisplay:10.37 W/m2 CLR
00:58 42.2 °F 30.5 °F 30.09 in East 1.2 mph   63% 0.00 in WeatherDisplay:10.37 W/m2 CLR
01:03 42.2 °F 31.3 °F 30.09 in SE 1.2 mph   65% 0.00 in WeatherDisplay:10.37 W/m2 CLR
01:08 42.2 °F 30.9 °F 30.10 in Calm     64% 0.00 in WeatherDisplay:10.37 W/m2 CLR
01:13 42.1 °F 30.4 °F 30.10 in East 1.2 mph   63% 0.00 in WeatherDisplay:10.37 W/m2 -RA
01:19 42.1 °F 31.2 °F 30.09 in East 1.2 mph 1.2 mph 65% 0.00 in WeatherDisplay:10.37 W/m2 -RA
01:24 42.0 °F 31.1 °F 30.07 in SSW 1.2 mph   65% 0.00 in WeatherDisplay:10.37 W/m2 -RA
01:34 41.9 °F 30.6 °F 30.10 in West 1.2 mph   64% 0.00 in WeatherDisplay:10.37 W/m2 SCT
01:39 41.9 °F 30.6 °F 30.09 in WNW 1.2 mph   64% 0.00 in WeatherDisplay:10.37 W/m2 SCT
01:44 41.9 °F 30.6 °F 30.10 in Calm     64% 0.00 in WeatherDisplay:10.37 W/m2 -RA
01:49 41.8 °F 30.9 °F 30.11 in Calm     65% 0.00 in WeatherDisplay:10.37 W/m2 -RA
01:54 41.7 °F 30.8 °F 30.09 in WNW 1.2 mph   65% 0.00 in WeatherDisplay:10.37 W/m2 -RA
01:59 41.7 °F 31.5 °F 30.11 in West 1.2 mph   67% 0.00 in WeatherDisplay:10.37 W/m2 -RA
02:04 41.6 °F 30.7 °F 30.12 in WNW 1.2 mph   65% 0.00 in WeatherDisplay:10.37 W/m2 BKN
02:09 41.6 °F 31.4 °F 30.12 in NW 1.2 mph   67% 0.00 in WeatherDisplay:10.37 W/m2 BKN
02:15 41.6 °F 31.4 °F 30.12 in Calm     67% 0.00 in WeatherDisplay:10.37 W/m2 BKN
02:20 41.5 °F 31.0 °F 30.14 in Calm   1.0 mph 66% 0.00 in WeatherDisplay:10.37 W/m2 BKN
02:25 41.4 °F 30.9 °F 30.13 in Calm   1.0 mph 66% 0.00 in WeatherDisplay:10.37 W/m2 BKN
02:30 41.3 °F 31.2 °F 30.13 in West 1.2 mph   67% 0.00 in WeatherDisplay:10.37 W/m2 BKN
02:35 41.2 °F 30.7 °F 30.13 in West 2.3 mph 2.3 mph 66% 0.00 in WeatherDisplay:10.37 W/m2 BKN
02:40 41.1 °F 31.0 °F 30.14 in NW 2.3 mph   67% 0.00 in WeatherDisplay:10.37 W/m2 BKN
02:45 40.9 °F 30.8 °F 30.14 in North 2.3 mph 2.3 mph 67% 0.00 in WeatherDisplay:10.37 W/m2 BKN
02:50 40.8 °F 31.1 °F 30.13 in East 1.2 mph   68% 0.00 in WeatherDisplay:10.37 W/m2 BKN
02:55 40.7 °F 31.0 °F 30.13 in East 1.2 mph   68% 0.00 in WeatherDisplay:10.37 W/m2 BKN
03:00 40.5 °F 30.8 °F 30.11 in East 1.2 mph   68% 0.00 in WeatherDisplay:10.37 W/m2 BKN
03:11 40.1 °F 31.1 °F 30.12 in South 3.5 mph 3.5 mph 70% 0.00 in WeatherDisplay:10.37 W/m2 CLR
03:21 39.3 °F 31.7 °F 30.12 in South 3.5 mph 3.5 mph 74% 0.00 in WeatherDisplay:10.37 W/m2 CLR
03:26 39.0 °F 32.1 °F 30.12 in SSE 2.3 mph 2.3 mph 76% 0.00 in WeatherDisplay:10.37 W/m2 CLR
03:41 38.0 °F 32.1 °F 30.11 in ESE 3.5 mph   79% 0.00 in WeatherDisplay:10.37 W/m2 CLR
03:46 37.9 °F 32.3 °F 30.11 in ESE 3.5 mph   80% 0.00 in WeatherDisplay:10.37 W/m2 CLR
03:51 37.7 °F 32.4 °F 30.12 in SSE 3.5 mph 3.5 mph 81% 0.00 in WeatherDisplay:10.37 W/m2 CLR
03:56 37.6 °F 32.3 °F 30.12 in SE 3.5 mph   81% 0.00 in WeatherDisplay:10.37 W/m2 CLR
04:17 37.2 °F 32.5 °F 30.11 in East 3.5 mph 3.5 mph 83% 0.00 in WeatherDisplay:10.37 W/m2 -RA
04:22 37.0 °F 32.3 °F 30.11 in SE 2.3 mph   83% 0.00 in WeatherDisplay:10.37 W/m2 -RA
04:27 36.9 °F 32.5 °F 30.12 in ESE 2.3 mph 2.3 mph 84% 0.00 in WeatherDisplay:10.37 W/m2 -RA
04:32 36.8 °F 32.7 °F 30.11 in East 2.3 mph   85% 0.00 in WeatherDisplay:10.37 W/m2 -RA
04:37 36.8 °F 32.7 °F 30.11 in SW 1.2 mph   85% 0.00 in WeatherDisplay:10.37 W/m2 OVC
04:42 36.6 °F 32.5 °F 30.12 in WSW 1.2 mph 1.2 mph 85% 0.00 in WeatherDisplay:10.37 W/m2 OVC
04:47 36.6 °F 32.5 °F 30.12 in WSW 1.2 mph   85% 0.00 in WeatherDisplay:10.37 W/m2 OVC
04:57 36.5 °F 32.7 °F 30.11 in SW 1.2 mph   86% 0.00 in WeatherDisplay:10.37 W/m2 OVC
05:02 36.4 °F 32.6 °F 30.11 in SSW 1.2 mph   86% 0.00 in WeatherDisplay:10.37 W/m2 BKN
05:07 36.3 °F 32.5 °F 30.11 in SW 1.2 mph   86% 0.00 in WeatherDisplay:10.37 W/m2 BKN
05:17 36.2 °F 32.7 °F 30.09 in West 1.2 mph   87% 0.00 in WeatherDisplay:10.37 W/m2 BKN
05:22 36.1 °F 32.6 °F 30.09 in West 1.2 mph   87% 0.00 in WeatherDisplay:10.37 W/m2 BKN
05:28 36.1 °F 32.6 °F 30.09 in Calm     87% 0.00 in WeatherDisplay:10.37 W/m2 BKN
05:33 36.1 °F 32.9 °F 30.09 in ESE 1.2 mph   88% 0.00 in WeatherDisplay:10.37 W/m2 BKN
05:38 36.0 °F 32.8 °F 30.10 in WSW 1.2 mph   88% 0.00 in WeatherDisplay:10.37 W/m2 BKN
05:43 36.0 °F 32.8 °F 30.09 in Calm     88% 0.00 in WeatherDisplay:10.37 W/m2 SCT
05:48 35.9 °F 32.4 °F 30.09 in SW 2.3 mph 2.3 mph 87% 0.00 in WeatherDisplay:10.37 W/m2 SCT
05:53 35.9 °F 32.4 °F 30.09 in ESE 2.3 mph 2.3 mph 87% 0.00 in WeatherDisplay:10.37 W/m2 SCT
05:59 35.8 °F 32.6 °F 30.09 in SW 2.3 mph   88% 0.00 in WeatherDisplay:10.37 W/m2 SCT
06:04 35.8 °F 32.6 °F 30.08 in West 1.2 mph 1.2 mph 88% 0.00 in WeatherDisplay:10.37 W/m2 BKN
06:09 35.7 °F 32.5 °F 30.08 in WSW 1.2 mph   88% 0.00 in WeatherDisplay:10.37 W/m2 BKN
06:14 35.6 °F 32.4 °F 30.07 in SE 1.2 mph 1.2 mph 88% 0.00 in WeatherDisplay:10.37 W/m2 BKN
06:19 35.5 °F 32.3 °F 30.08 in WNW 1.2 mph   88% 0.00 in WeatherDisplay:10.37 W/m2 BKN
06:24 35.5 °F 32.3 °F 30.07 in NE 1.2 mph   88% 0.00 in WeatherDisplay:10.37 W/m2 BKN
06:29 35.4 °F 32.2 °F 30.08 in ESE 1.2 mph   88% 0.00 in WeatherDisplay:10.37 W/m2 BKN
06:34 35.4 °F 32.2 °F 30.09 in ESE 1.2 mph   88% 0.00 in WeatherDisplay:10.37 W/m2 BKN
06:39 35.2 °F 32.0 °F 30.08 in ESE 2.3 mph   88% 0.00 in WeatherDisplay:10.37 W/m2 BKN
06:44 35.1 °F 32.2 °F 30.08 in NE 2.3 mph   89% 0.00 in WeatherDisplay:10.37 W/m2 SCT
06:49 35.0 °F 32.1 °F 30.08 in NW 1.2 mph   89% 0.00 in WeatherDisplay:10.37 W/m2 SCT
07:00 34.7 °F 31.8 °F 30.08 in NE 1.2 mph 1.2 mph 89% 0.00 in WeatherDisplay:10.37 W/m2 SCT
07:05 34.6 °F 31.6 °F 30.09 in Calm   1.0 mph 89% 0.00 in WeatherDisplay:10.37 W/m2 SCT
07:10 34.4 °F 31.5 °F 30.08 in Calm     89% 0.00 in WeatherDisplay:10.37 W/m2 SCT
07:15 34.1 °F 31.2 °F 30.09 in Calm     89% 0.00 in WeatherDisplay:10.37 W/m2 -RA
07:20 34.0 °F 31.1 °F 30.10 in SSW 1.2 mph   89% 0.00 in WeatherDisplay:10.37 W/m2 -RA
07:25 33.8 °F 30.9 °F 30.10 in NE 1.2 mph   89% 0.00 in WeatherDisplay:10.37 W/m2 -RA
07:30 33.6 °F 31.0 °F 30.11 in ENE 1.2 mph   90% 0.00 in WeatherDisplay:10.37 W/m2 -RA
07:35 33.5 °F 30.9 °F 30.10 in SE 1.2 mph   90% 0.00 in WeatherDisplay:10.37 W/m2 -RA
07:40 33.5 °F 30.9 °F 30.10 in SE 1.2 mph   90% 0.00 in WeatherDisplay:10.37 W/m2 -RA
07:45 33.3 °F 30.7 °F 30.10 in SE 1.2 mph   90% 0.00 in WeatherDisplay:10.37 W/m2 -RA
07:50 33.3 °F 30.7 °F 30.10 in SE 1.2 mph   90% 0.00 in WeatherDisplay:10.37 W/m2 -RA
07:55 33.2 °F 30.6 °F 30.09 in SSW 2.3 mph   90% 0.00 in WeatherDisplay:10.37 W/m2 -RA
08:00 33.2 °F 30.6 °F 30.09 in WSW 2.3 mph   90% 0.00 in WeatherDisplay:10.37 W/m2 -RA
08:11 33.2 °F 30.9 °F 30.10 in NW 1.2 mph 1.2 mph 91% 0.00 in WeatherDisplay:10.37 W/m2 -RA
08:16 33.1 °F 30.8 °F 30.10 in WNW 1.2 mph 1.2 mph 91% 0.00 in WeatherDisplay:10.37 W/m2 -RA
08:21 33.1 °F 30.8 °F 30.10 in WNW 1.2 mph 1.2 mph 91% 0.00 in WeatherDisplay:10.37 W/m2 -RA
08:26 33.1 °F 30.8 °F 30.10 in East 1.2 mph   91% 0.00 in WeatherDisplay:10.37 W/m2 -RA
08:31 33.1 °F 30.8 °F 30.09 in ESE 3.5 mph 3.5 mph 91% 0.00 in WeatherDisplay:10.37 W/m2 -RA
08:36 33.1 °F 30.8 °F 30.11 in South 3.5 mph 3.5 mph 91% 0.00 in WeatherDisplay:10.37 W/m2 -RA
08:41 33.1 °F 30.8 °F 30.10 in SSW 2.3 mph 2.3 mph 91% 0.00 in WeatherDisplay:10.37 W/m2 -RA
08:46 33.1 °F 30.8 °F 30.09 in WNW 2.3 mph   91% 0.01 in WeatherDisplay:10.37 W/m2 -RA
08:56 33.1 °F 30.8 °F 30.10 in ESE 2.3 mph   91% 0.01 in WeatherDisplay:10.37 W/m2 -SN
09:01 33.0 °F 30.7 °F 30.09 in ENE 1.2 mph   91% 0.01 in WeatherDisplay:10.37 W/m2 -SN
09:06 33.0 °F 30.7 °F 30.10 in East 1.2 mph 1.2 mph 91% 0.01 in WeatherDisplay:10.37 W/m2 -SN
09:11 33.1 °F 30.8 °F 30.11 in ESE 1.2 mph   91% 0.01 in WeatherDisplay:10.37 W/m2 -SN
09:16 33.0 °F 30.7 °F 30.10 in East 1.2 mph   91% 0.01 in WeatherDisplay:10.37 W/m2 -SN
09:31 32.9 °F 30.6 °F 30.11 in Calm     91% 0.01 in WeatherDisplay:10.37 W/m2 -SN
09:37 32.9 °F 30.6 °F 30.10 in Calm     91% 0.01 in WeatherDisplay:10.37 W/m2 -SN
09:42 32.9 °F 30.6 °F 30.10 in West 1.2 mph 1.2 mph 91% 0.01 in WeatherDisplay:10.37 W/m2 -SN
09:47 32.9 °F 30.6 °F 30.12 in WSW 1.2 mph   91% 0.00 in WeatherDisplay:10.37 W/m2 -SN
09:52 32.9 °F 30.6 °F 30.12 in WSW 1.2 mph   91% 0.00 in WeatherDisplay:10.37 W/m2 -SN
09:57 32.9 °F 30.6 °F 30.10 in WSW 1.2 mph   91% 0.00 in WeatherDisplay:10.37 W/m2 -SN
10:02 32.9 °F 30.6 °F 30.10 in West 1.2 mph   91% 0.00 in WeatherDisplay:10.37 W/m2 -SN
10:07 32.9 °F 30.6 °F 30.10 in North 1.2 mph   91% 0.00 in WeatherDisplay:10.37 W/m2 -SN
10:12 32.9 °F 30.6 °F 30.11 in NNE 1.2 mph 1.2 mph 91% 0.00 in WeatherDisplay:10.37 W/m2 -SN
10:17 32.9 °F 30.6 °F 30.10 in East 1.2 mph   91% 0.00 in WeatherDisplay:10.37 W/m2 OVC
10:22 32.9 °F 30.6 °F 30.10 in East 1.2 mph   91% 0.00 in WeatherDisplay:10.37 W/m2 OVC
10:27 32.9 °F 30.6 °F 30.11 in East 1.2 mph   91% 0.00 in WeatherDisplay:10.37 W/m2 OVC
10:38 32.9 °F 30.8 °F 30.11 in Calm   0.2 mph 92% 0.00 in WeatherDisplay:10.37 W/m2 OVC
10:43 32.9 °F 30.8 °F 30.11 in ESE 1.2 mph   92% 0.00 in WeatherDisplay:10.37 W/m2 OVC
10:48 32.9 °F 30.8 °F 30.12 in ESE 1.2 mph   92% 0.00 in WeatherDisplay:10.37 W/m2 OVC
10:53 32.9 °F 30.8 °F 30.12 in Calm     92% 0.00 in WeatherDisplay:10.37 W/m2 OVC
10:58 32.9 °F 30.8 °F 30.12 in Calm     92% 0.00 in WeatherDisplay:10.37 W/m2 OVC
11:03 32.9 °F 30.8 °F 30.10 in ESE 1.2 mph   92% 0.00 in WeatherDisplay:10.37 W/m2 -SN
11:08 32.9 °F 30.8 °F 30.10 in ESE 1.2 mph   92% 0.00 in WeatherDisplay:10.37 W/m2 -SN
11:13 32.9 °F 30.8 °F 30.09 in East 1.2 mph   92% 0.00 in WeatherDisplay:10.37 W/m2 -SN
11:23 32.9 °F 30.8 °F 30.09 in East 3.5 mph   92% 0.00 in WeatherDisplay:10.37 W/m2 -SN
11:28 32.9 °F 30.8 °F 30.10 in NNE 3.5 mph   92% 0.00 in WeatherDisplay:10.37 W/m2 -SN
11:33 32.9 °F 30.8 °F 30.11 in West 1.2 mph   92% 0.00 in WeatherDisplay:10.37 W/m2 -SN
11:39 32.8 °F 30.7 °F 30.11 in SSW 1.2 mph   92% 0.00 in WeatherDisplay:10.37 W/m2 -SN
11:44 32.8 °F 30.7 °F 30.11 in Calm     92% 0.00 in WeatherDisplay:10.37 W/m2 -SN
11:49 32.8 °F 30.7 °F 30.11 in South 1.2 mph   92% 0.00 in WeatherDisplay:10.37 W/m2 OVC
11:54 32.8 °F 30.7 °F 30.11 in South 1.2 mph   92% 0.00 in WeatherDisplay:10.37 W/m2 OVC
11:59 32.8 °F 30.7 °F 30.11 in East 1.2 mph   92% 0.00 in WeatherDisplay:10.37 W/m2 OVC
12:04 32.8 °F 30.7 °F 30.12 in Calm     92% 0.00 in WeatherDisplay:10.37 W/m2 OVC
12:09 32.8 °F 30.7 °F 30.09 in Calm     92% 0.00 in WeatherDisplay:10.37 W/m2 OVC
12:14 32.8 °F 30.7 °F 30.09 in West 1.2 mph   92% 0.00 in WeatherDisplay:10.37 W/m2 OVC
12:19 32.8 °F 30.7 °F 30.09 in SW 1.2 mph   92% 0.00 in WeatherDisplay:10.37 W/m2 OVC
12:24 32.8 °F 30.7 °F 30.09 in East 1.2 mph 1.2 mph 92% 0.00 in WeatherDisplay:10.37 W/m2 OVC
12:29 32.8 °F 30.7 °F 30.08 in ENE 1.2 mph   92% 0.00 in WeatherDisplay:10.37 W/m2 OVC
12:34 32.8 °F 30.7 °F 30.07 in NNW 1.2 mph   92% 0.00 in WeatherDisplay:10.37 W/m2 OVC
12:39 32.9 °F 30.8 °F 30.07 in Calm     92% 0.00 in WeatherDisplay:10.37 W/m2 OVC
12:45 32.9 °F 30.8 °F 30.06 in Calm   0.1 mph 92% 0.00 in WeatherDisplay:10.37 W/m2 OVC
12:50 32.9 °F 30.8 °F 30.06 in Calm     92% 0.00 in WeatherDisplay:10.37 W/m2 OVC
12:55 33.0 °F 30.9 °F 30.06 in Calm     92% 0.00 in WeatherDisplay:10.37 W/m2 OVC
13:00 33.0 °F 30.9 °F 30.06 in Calm     92% 0.00 in WeatherDisplay:10.37 W/m2 OVC
13:05 33.0 °F 30.9 °F 30.05 in Calm     92% 0.00 in WeatherDisplay:10.37 W/m2 OVC
13:10 33.1 °F 31.0 °F 30.02 in Calm     92% 0.00 in WeatherDisplay:10.37 W/m2 OVC
13:15 33.0 °F 30.9 °F 30.03 in NE 1.2 mph   92% 0.00 in WeatherDisplay:10.37 W/m2 OVC
13:20 33.1 °F 31.0 °F 30.04 in ENE 1.2 mph   92% 0.00 in WeatherDisplay:10.37 W/m2 OVC
13:25 33.1 °F 31.0 °F 30.04 in East 1.2 mph   92% 0.00 in WeatherDisplay:10.37 W/m2 -SN
13:30 33.1 °F 31.0 °F 30.02 in East 1.2 mph   92% 0.00 in WeatherDisplay:10.37 W/m2 -SN
13:34 33.0 °F 30.9 °F 30.01 in Calm     92% 0.00 in WeatherDisplay:10.37 W/m2 RA
13:40 33.0 °F 30.9 °F 30.01 in Calm     92% 0.00 in WeatherDisplay:10.37 W/m2 -SN
13:44 33.0 °F 30.9 °F 30.01 in Calm   1.0 mph 92% 0.00 in WeatherDisplay:10.37 W/m2
13:46 33.0 °F 30.9 °F 30.01 in SE 1.2 mph   92% 0.00 in WeatherDisplay:10.37 W/m2 -SN
13:51 33.1 °F 31.0 °F 30.01 in SSW 1.2 mph   92% 0.00 in WeatherDisplay:10.37 W/m2 -SN
13:54 33.1 °F 31.0 °F 30.01 in Calm     92% 0.00 in WeatherDisplay:10.37 W/m2
14:04 33.0 °F 30.9 °F 29.99 in Calm     92% 0.00 in WeatherDisplay:10.37 W/m2
14:06 33.1 °F 31.0 °F 29.99 in Calm     92% 0.00 in WeatherDisplay:10.37 W/m2 -RA
14:14 33.0 °F 30.9 °F 29.98 in Calm     92% 0.00 in WeatherDisplay:10.37 W/m2
14:24 33.0 °F 30.9 °F 29.98 in Calm   1.0 mph 92% 0.01 in WeatherDisplay:10.37 W/m2
14:31 33.0 °F 30.9 °F 29.98 in SSE 1.2 mph   92% 0.01 in WeatherDisplay:10.37 W/m2 -RA
14:34 33.0 °F 30.9 °F 29.97 in Calm     92% 0.00 in WeatherDisplay:10.37 W/m2
14:36 33.0 °F 30.9 °F 29.96 in Calm     92% 0.01 in WeatherDisplay:10.37 W/m2 -RA
14:41 33.0 °F 30.9 °F 29.97 in Calm     92% 0.01 in WeatherDisplay:10.37 W/m2 -RA
14:44 33.0 °F 30.9 °F 29.97 in Calm     92% 0.00 in WeatherDisplay:10.37 W/m2
14:46 33.0 °F 30.9 °F 29.97 in Calm     92% 0.01 in WeatherDisplay:10.37 W/m2 -RA
14:52 32.9 °F 30.8 °F 29.97 in Calm     92% 0.02 in WeatherDisplay:10.37 W/m2 -RA
14:54 32.9 °F 30.8 °F 29.96 in Calm     92% 0.01 in WeatherDisplay:10.37 W/m2
14:57 32.9 °F 30.8 °F 29.96 in Calm     92% 0.02 in WeatherDisplay:10.37 W/m2 -RA
15:02 32.9 °F 30.8 °F 29.97 in Calm     92% 0.03 in WeatherDisplay:10.37 W/m2 -RA
15:04 32.9 °F 30.8 °F 29.97 in Calm     92% 0.01 in WeatherDisplay:10.37 W/m2
15:07 32.9 °F 30.8 °F 29.97 in Calm     92% 0.04 in WeatherDisplay:10.37 W/m2 -RA
15:18 33.0 °F 30.9 °F 30.01 in Calm     92% 0.05 in WeatherDisplay:10.37 W/m2 RA
15:23 32.9 °F 30.8 °F 30.00 in Calm     92% 0.06 in WeatherDisplay:10.37 W/m2 -RA
15:28 32.9 °F 30.8 °F 30.00 in Calm     92% 0.05 in WeatherDisplay:10.37 W/m2 -RA
15:33 32.9 °F 30.8 °F 30.00 in Calm     92% 0.06 in WeatherDisplay:10.37 W/m2 -RA
15:38 32.8 °F 30.7 °F 29.99 in SE 1.2 mph   92% 0.06 in WeatherDisplay:10.37 W/m2 -RA
15:43 32.8 °F 30.7 °F 30.00 in South 1.2 mph   92% 0.07 in WeatherDisplay:10.37 W/m2 -RA
15:48 32.8 °F 30.7 °F 30.01 in Calm     92% 0.07 in WeatherDisplay:10.37 W/m2 -RA
15:53 32.8 °F 30.7 °F 30.02 in Calm     92% 0.07 in WeatherDisplay:10.37 W/m2 -RA
15:59 32.8 °F 30.7 °F 30.00 in South 1.2 mph   92% 0.06 in WeatherDisplay:10.37 W/m2 -SN
16:04 32.7 °F 30.6 °F 30.00 in SW 1.2 mph   92% 0.05 in WeatherDisplay:10.37 W/m2 -SN
16:09 32.7 °F 30.6 °F 30.01 in Calm     92% 0.05 in WeatherDisplay:10.37 W/m2 -SN
16:14 32.7 °F 30.6 °F 30.01 in Calm     92% 0.04 in WeatherDisplay:10.37 W/m2 -SN
16:19 32.7 °F 30.6 °F 30.02 in Calm     92% 0.04 in WeatherDisplay:10.37 W/m2 -SN
16:24 32.7 °F 30.6 °F 29.99 in Calm     92% 0.03 in WeatherDisplay:10.37 W/m2 -SN
16:29 32.7 °F 30.6 °F 30.00 in Calm     92% 0.02 in WeatherDisplay:10.37 W/m2 -SN
16:34 32.7 °F 30.6 °F 30.00 in Calm     92% 0.02 in WeatherDisplay:10.37 W/m2 -SN
16:39 32.7 °F 30.6 °F 30.01 in Calm     92% 0.02 in WeatherDisplay:10.37 W/m2 -SN
16:44 32.7 °F 30.6 °F 30.00 in Calm     92% 0.01 in WeatherDisplay:10.37 W/m2 -SN
16:50 32.7 °F 30.6 °F 29.99 in Calm     92% 0.01 in WeatherDisplay:10.37 W/m2 -SN
16:55 32.7 °F 30.6 °F 30.00 in Calm     92% 0.02 in WeatherDisplay:10.37 W/m2 -SN
17:00 32.7 °F 30.6 °F 30.00 in Calm     92% 0.02 in WeatherDisplay:10.37 W/m2 -SN
17:05 32.7 °F 30.6 °F 30.00 in Calm     92% 0.02 in WeatherDisplay:10.37 W/m2 -SN
17:10 32.6 °F 30.5 °F 30.01 in Calm     92% 0.02 in WeatherDisplay:10.37 W/m2 -SN
17:15 32.6 °F 30.5 °F 30.01 in Calm     92% 0.02 in WeatherDisplay:10.37 W/m2 -SN
17:19 32.6 °F 30.5 °F 30.00 in Calm     92% 0.01 in WeatherDisplay:10.37 W/m2 -SN
17:25 32.6 °F 30.5 °F 30.00 in Calm     92% 0.01 in WeatherDisplay:10.37 W/m2 -SN
17:30 32.6 °F 30.5 °F 30.00 in Calm     92% 0.01 in WeatherDisplay:10.37 W/m2 -SN
17:35 32.6 °F 30.5 °F 29.99 in Calm     92% 0.00 in WeatherDisplay:10.37 W/m2 -SN
17:40 32.5 °F 30.4 °F 29.98 in Calm     92% 0.00 in WeatherDisplay:10.37 W/m2 -SN
17:45 32.5 °F 30.4 °F 29.98 in Calm     92% 0.01 in WeatherDisplay:10.37 W/m2 -SN
17:50 32.5 °F 30.4 °F 29.97 in Calm     92% 0.01 in WeatherDisplay:10.37 W/m2 -SN
17:55 32.5 °F 30.4 °F 29.98 in Calm     92% 0.01 in WeatherDisplay:10.37 W/m2 -SN
18:00 32.5 °F 30.4 °F 29.98 in Calm     92% 0.01 in WeatherDisplay:10.37 W/m2 -SN
18:05 32.5 °F 30.4 °F 29.99 in Calm     92% 0.01 in WeatherDisplay:10.37 W/m2 OVC
18:10 32.5 °F 30.4 °F 29.99 in Calm     92% 0.01 in WeatherDisplay:10.37 W/m2 OVC
18:15 32.5 °F 30.4 °F 30.00 in Calm     92% 0.01 in WeatherDisplay:10.37 W/m2 -RA
18:20 32.5 °F 30.4 °F 29.99 in Calm     92% 0.01 in WeatherDisplay:10.37 W/m2 -RA
18:26 32.5 °F 30.4 °F 29.99 in Calm     92% 0.01 in WeatherDisplay:10.37 W/m2 -RA
18:36 32.6 °F 30.5 °F 30.00 in Calm     92% 0.01 in WeatherDisplay:10.37 W/m2 -RA
18:46 32.6 °F 30.5 °F 30.01 in Calm     92% 0.01 in WeatherDisplay:10.37 W/m2 -SN
19:02 32.6 °F 30.5 °F 30.02 in Calm     92% 0.00 in WeatherDisplay:10.37 W/m2 -SN
19:07 32.6 °F 30.5 °F 30.02 in SSE 1.2 mph   92% 0.01 in WeatherDisplay:10.37 W/m2 -SN
19:12 32.6 °F 30.5 °F 30.02 in West 1.2 mph   92% 0.01 in WeatherDisplay:10.37 W/m2 -SN
19:17 32.6 °F 30.5 °F 30.02 in Calm     92% 0.01 in WeatherDisplay:10.37 W/m2 -SN
19:22 32.6 °F 30.5 °F 30.03 in Calm     92% 0.01 in WeatherDisplay:10.37 W/m2 -SN
19:27 32.6 °F 30.5 °F 30.03 in Calm     92% 0.01 in WeatherDisplay:10.37 W/m2 -SN
19:32 32.6 °F 30.5 °F 30.04 in Calm     92% 0.01 in WeatherDisplay:10.37 W/m2 -SN
19:37 32.6 °F 30.5 °F 30.05 in Calm     92% 0.01 in WeatherDisplay:10.37 W/m2 -SN
19:42 32.6 °F 30.5 °F 30.03 in Calm     92% 0.01 in WeatherDisplay:10.37 W/m2 -SN
19:47 32.6 °F 30.5 °F 30.02 in Calm     92% 0.01 in WeatherDisplay:10.37 W/m2 -SN
19:52 32.6 °F 30.5 °F 30.03 in Calm     92% 0.01 in WeatherDisplay:10.37 W/m2 -SN
19:57 32.6 °F 30.8 °F 30.04 in Calm     93% 0.01 in WeatherDisplay:10.37 W/m2 -SN
20:02 32.6 °F 30.8 °F 30.02 in Calm     93% 0.01 in WeatherDisplay:10.37 W/m2 -SN
20:08 32.6 °F 30.5 °F 30.04 in Calm     92% 0.00 in WeatherDisplay:10.37 W/m2 -SN
20:13 32.5 °F 30.7 °F 30.03 in Calm     93% 0.00 in WeatherDisplay:10.37 W/m2 -SN
20:18 32.5 °F 30.4 °F 30.02 in Calm     92% 0.00 in WeatherDisplay:10.37 W/m2 -SN
20:23 32.5 °F 30.7 °F 30.03 in Calm     93% 0.00 in WeatherDisplay:10.37 W/m2 -SN
20:28 32.5 °F 30.4 °F 30.01 in Calm     92% 0.00 in WeatherDisplay:10.37 W/m2 -SN
20:33 32.5 °F 30.7 °F 30.00 in Calm     93% 0.00 in WeatherDisplay:10.37 W/m2 -SN
20:38 32.5 °F 30.7 °F 30.00 in Calm     93% 0.01 in WeatherDisplay:10.37 W/m2 -SN
20:43 32.4 °F 30.6 °F 30.00 in Calm     93% 0.01 in WeatherDisplay:10.37 W/m2 -SN
20:48 32.4 °F 30.6 °F 30.00 in Calm     93% 0.01 in WeatherDisplay:10.37 W/m2 -SN
20:53 32.4 °F 30.6 °F 30.00 in Calm     93% 0.01 in WeatherDisplay:10.37 W/m2 -SN
20:58 32.4 °F 30.6 °F 30.00 in Calm     93% 0.01 in WeatherDisplay:10.37 W/m2 -SN
21:03 32.4 °F 30.6 °F 30.00 in Calm     93% 0.01 in WeatherDisplay:10.37 W/m2 -SN
21:09 32.5 °F 30.7 °F 30.01 in Calm     93% 0.01 in WeatherDisplay:10.37 W/m2 -SN
21:14 32.5 °F 30.7 °F 30.00 in Calm     93% 0.01 in WeatherDisplay:10.37 W/m2 -SN
21:19 32.5 °F 30.7 °F 29.99 in Calm     93% 0.01 in WeatherDisplay:10.37 W/m2 -SN
21:24 32.5 °F 30.7 °F 29.99 in Calm     93% 0.01 in WeatherDisplay:10.37 W/m2 -SN
21:29 32.5 °F 30.7 °F 29.99 in Calm     93% 0.01 in WeatherDisplay:10.37 W/m2 -SN
21:34 32.5 °F 30.7 °F 29.99 in Calm     93% 0.01 in WeatherDisplay:10.37 W/m2 -SN
21:39 32.5 °F 30.7 °F 29.99 in Calm     93% 0.00 in WeatherDisplay:10.37 W/m2 -SN
21:44 32.5 °F 30.7 °F 29.98 in Calm     93% 0.00 in WeatherDisplay:10.37 W/m2 -SN
21:49 32.5 °F 30.7 °F 29.99 in Calm     93% 0.00 in WeatherDisplay:10.37 W/m2 -SN
21:54 32.6 °F 30.8 °F 30.00 in Calm     93% 0.00 in WeatherDisplay:10.37 W/m2 -SN
21:59 32.7 °F 30.9 °F 30.01 in Calm     93% 0.00 in WeatherDisplay:10.37 W/m2 -SN
22:05 32.7 °F 30.9 °F 30.01 in Calm     93% 0.00 in WeatherDisplay:10.37 W/m2 -SN
22:10 32.7 °F 30.9 °F 30.02 in Calm     93% 0.00 in WeatherDisplay:10.37 W/m2 -SN
22:16 32.7 °F 30.9 °F 30.03 in Calm     93% 0.00 in WeatherDisplay:10.37 W/m2 -SN
22:22 32.6 °F 30.8 °F 30.04 in Calm     93% 0.00 in WeatherDisplay:10.37 W/m2 -SN
22:27 32.6 °F 30.8 °F 30.04 in Calm     93% 0.01 in WeatherDisplay:10.37 W/m2 -SN
22:29 32.6 °F 30.8 °F 30.04 in Calm     93% 0.01 in WeatherDisplay:10.37 W/m2 -SN
22:33 32.6 °F 30.8 °F 30.04 in Calm     93% 0.01 in WeatherDisplay:10.37 W/m2 -SN
22:38 32.6 °F 30.8 °F 30.04 in Calm     93% 0.01 in WeatherDisplay:10.37 W/m2 -SN
22:43 32.6 °F 30.8 °F 30.04 in Calm     93% 0.01 in WeatherDisplay:10.37 W/m2 -SN
22:49 32.6 °F 30.8 °F 30.05 in Calm     93% 0.01 in WeatherDisplay:10.37 W/m2 -SN
22:54 32.6 °F 30.8 °F 30.05 in Calm     93% 0.01 in WeatherDisplay:10.37 W/m2 -SN
22:59 32.6 °F 30.8 °F 30.04 in Calm     93% 0.01 in WeatherDisplay:10.37 W/m2 -SN
23:04 32.6 °F 30.8 °F 30.03 in Calm     93% 0.01 in WeatherDisplay:10.37 W/m2 -SN
23:09 32.6 °F 30.8 °F 30.03 in Calm     93% 0.01 in WeatherDisplay:10.37 W/m2 -SN
23:14 32.6 °F 30.8 °F 30.05 in Calm     93% 0.01 in WeatherDisplay:10.37 W/m2 -SN
23:19 32.5 °F 30.7 °F 30.02 in Calm     93% 0.01 in WeatherDisplay:10.37 W/m2 -SN
23:24 32.5 °F 30.7 °F 30.04 in Calm     93% 0.00 in WeatherDisplay:10.37 W/m2 -SN
23:29 32.5 °F 30.7 °F 30.03 in Calm     93% 0.00 in WeatherDisplay:10.37 W/m2 -SN
23:34 32.5 °F 30.7 °F 30.03 in Calm     93% 0.00 in WeatherDisplay:10.37 W/m2 -SN
23:39 32.5 °F 30.7 °F 30.00 in Calm     93% 0.00 in WeatherDisplay:10.37 W/m2 -SN
23:44 32.4 °F 30.6 °F 30.00 in Calm     93% 0.00 in WeatherDisplay:10.37 W/m2 -SN
23:50 32.5 °F 30.7 °F 29.99 in Calm     93% 0.00 in WeatherDisplay:10.37 W/m2 -SN
23:55 32.4 °F 30.6 °F 29.99 in Calm     93% 0.00 in WeatherDisplay:10.37 W/m2 -SN
Piedmont Bend
Compliments of Weather Underground - 4 mb